sensor_id;sensor_type;location;lat;lon;timestamp;pressure;altitude;pressure_sealevel;temperature;humidity
78745;BME280;68064;53.100;8.824;2023-05-08T00:00:04;102429.22;;;10.76;60.09
78745;BME280;68064;53.100;8.824;2023-05-08T00:01:05;102428.53;;;10.65;61.37
78745;BME280;68064;53.100;8.824;2023-05-08T00:02:06;102417.19;;;10.61;60.58
78745;BME280;68064;53.100;8.824;2023-05-08T00:03:07;102432.22;;;10.57;59.80
78745;BME280;68064;53.100;8.824;2023-05-08T00:04:08;102432.56;;;10.50;64.75
78745;BME280;68064;53.100;8.824;2023-05-08T00:05:09;102430.22;;;10.53;60.29
78745;BME280;68064;53.100;8.824;2023-05-08T00:06:10;102427.66;;;10.53;59.85
78745;BME280;68064;53.100;8.824;2023-05-08T00:07:11;102431.03;;;10.52;59.94
78745;BME280;68064;53.100;8.824;2023-05-08T00:08:12;102430.75;;;10.60;59.51
78745;BME280;68064;53.100;8.824;2023-05-08T00:09:14;102420.09;;;10.54;59.88
78745;BME280;68064;53.100;8.824;2023-05-08T00:10:15;102430.22;;;10.53;59.85
78745;BME280;68064;53.100;8.824;2023-05-08T00:11:17;102429.16;;;10.49;59.32
78745;BME280;68064;53.100;8.824;2023-05-08T00:12:18;102425.38;;;10.44;60.83
78745;BME280;68064;53.100;8.824;2023-05-08T00:13:19;102430.41;;;10.43;60.08
78745;BME280;68064;53.100;8.824;2023-05-08T00:14:20;102430.91;;;10.50;59.56
78745;BME280;68064;53.100;8.824;2023-05-08T00:15:21;102425.00;;;10.51;60.86
78745;BME280;68064;53.100;8.824;2023-05-08T00:16:22;102423.00;;;10.47;62.48
78745;BME280;68064;53.100;8.824;2023-05-08T00:17:24;102425.50;;;10.46;60.37
78745;BME280;68064;53.100;8.824;2023-05-08T00:18:24;102428.41;;;10.39;60.35
78745;BME280;68064;53.100;8.824;2023-05-08T00:19:25;102428.06;;;10.34;61.56
78745;BME280;68064;53.100;8.824;2023-05-08T00:20:26;102425.38;;;10.44;61.96
78745;BME280;68064;53.100;8.824;2023-05-08T00:21:28;102428.19;;;10.36;63.89
78745;BME280;68064;53.100;8.824;2023-05-08T00:22:29;102434.41;;;10.39;60.26
78745;BME280;68064;53.100;8.824;2023-05-08T00:23:30;102429.31;;;10.28;63.32
78745;BME280;68064;53.100;8.824;2023-05-08T00:24:32;102429.66;;;10.32;60.99
78745;BME280;68064;53.100;8.824;2023-05-08T00:25:33;102430.22;;;10.28;62.09
78745;BME280;68064;53.100;8.824;2023-05-08T00:26:34;102427.78;;;10.30;60.25
78745;BME280;68064;53.100;8.824;2023-05-08T00:27:35;102434.88;;;10.34;60.02
78745;BME280;68064;53.100;8.824;2023-05-08T00:28:36;102426.88;;;10.29;62.94
78745;BME280;68064;53.100;8.824;2023-05-08T00:29:37;102427.28;;;10.35;61.00
78745;BME280;68064;53.100;8.824;2023-05-08T00:30:39;102433.31;;;10.36;59.98
78745;BME280;68064;53.100;8.824;2023-05-08T00:31:40;102431.09;;;10.29;60.25
78745;BME280;68064;53.100;8.824;2023-05-08T00:32:41;102435.66;;;10.33;59.16
78745;BME280;68064;53.100;8.824;2023-05-08T00:33:42;102436.69;;;10.23;61.89
78745;BME280;68064;53.100;8.824;2023-05-08T00:34:43;102444.25;;;10.22;61.23
78745;BME280;68064;53.100;8.824;2023-05-08T00:35:44;102436.22;;;10.29;59.65
78745;BME280;68064;53.100;8.824;2023-05-08T00:36:45;102436.69;;;10.23;60.00
78745;BME280;68064;53.100;8.824;2023-05-08T00:37:46;102443.13;;;10.18;60.85
78745;BME280;68064;53.100;8.824;2023-05-08T00:38:47;102434.78;;;10.09;62.88
78745;BME280;68064;53.100;8.824;2023-05-08T00:39:49;102443.06;;;10.17;61.18
78745;BME280;68064;53.100;8.824;2023-05-08T00:40:50;102432.44;;;10.12;62.96
78745;BME280;68064;53.100;8.824;2023-05-08T00:41:51;102440.38;;;10.15;59.82
78745;BME280;68064;53.100;8.824;2023-05-08T00:42:53;102439.34;;;10.13;60.36
78745;BME280;68064;53.100;8.824;2023-05-08T00:43:54;102439.81;;;10.19;59.81
78745;BME280;68064;53.100;8.824;2023-05-08T00:44:55;102434.91;;;10.22;61.41
78745;BME280;68064;53.100;8.824;2023-05-08T00:45:58;102439.81;;;10.19;60.92
78745;BME280;68064;53.100;8.824;2023-05-08T00:47:00;102443.13;;;10.18;59.31
78745;BME280;68064;53.100;8.824;2023-05-08T00:48:01;102443.06;;;10.17;60.59
78745;BME280;68064;53.100;8.824;2023-05-08T00:49:03;102435.16;;;10.14;60.15
78745;BME280;68064;53.100;8.824;2023-05-08T00:50:06;102441.00;;;10.13;60.68
78745;BME280;68064;53.100;8.824;2023-05-08T00:51:08;102435.38;;;10.17;60.29
78745;BME280;68064;53.100;8.824;2023-05-08T00:52:10;102437.03;;;10.04;63.07
78745;BME280;68064;53.100;8.824;2023-05-08T00:53:11;102443.81;;;10.04;61.60
78745;BME280;68064;53.100;8.824;2023-05-08T00:54:12;102435.81;;;9.99;63.34
78745;BME280;68064;53.100;8.824;2023-05-08T00:55:15;102429.16;;;10.01;60.91
78745;BME280;68064;53.100;8.824;2023-05-08T00:56:17;102431.72;;;10.01;63.08
78745;BME280;68064;53.100;8.824;2023-05-08T00:57:21;102432.28;;;9.97;63.37
78745;BME280;68064;53.100;8.824;2023-05-08T00:58:22;102426.16;;;9.95;63.38
78745;BME280;68064;53.100;8.824;2023-05-08T00:59:25;102430.47;;;9.96;63.38
78745;BME280;68064;53.100;8.824;2023-05-08T01:00:26;102419.81;;;9.90;64.02
78745;BME280;68064;53.100;8.824;2023-05-08T01:01:28;102424.03;;;10.01;63.02
78745;BME280;68064;53.100;8.824;2023-05-08T01:02:29;102424.38;;;9.94;63.02
78745;BME280;68064;53.100;8.824;2023-05-08T01:03:32;102428.94;;;9.98;63.27
78745;BME280;68064;53.100;8.824;2023-05-08T01:04:35;102426.38;;;9.98;61.30
78745;BME280;68064;53.100;8.824;2023-05-08T01:05:36;102422.50;;;9.92;64.05
78745;BME280;68064;53.100;8.824;2023-05-08T01:06:37;102425.16;;;9.93;62.32
78745;BME280;68064;53.100;8.824;2023-05-08T01:07:38;102422.72;;;9.95;66.05
78745;BME280;68064;53.100;8.824;2023-05-08T01:08:39;102422.25;;;10.00;63.65
78745;BME280;68064;53.100;8.824;2023-05-08T01:09:42;102425.84;;;9.91;65.74
78745;BME280;68064;53.100;8.824;2023-05-08T01:10:48;102421.06;;;9.95;64.58
78745;BME280;68064;53.100;8.824;2023-05-08T01:12:02;102419.94;;;9.92;63.83
78745;BME280;68064;53.100;8.824;2023-05-08T01:13:13;102422.38;;;9.90;65.24
78745;BME280;68064;53.100;8.824;2023-05-08T01:14:19;102415.25;;;9.86;62.97
78745;BME280;68064;53.100;8.824;2023-05-08T01:15:26;102424.94;;;9.90;62.87
78745;BME280;68064;53.100;8.824;2023-05-08T01:16:37;102421.13;;;9.97;60.66
78745;BME280;68064;53.100;8.824;2023-05-08T01:17:48;102426.16;;;9.95;60.19
78745;BME280;68064;53.100;8.824;2023-05-08T01:18:59;102416.03;;;9.97;64.54
78745;BME280;68064;53.100;8.824;2023-05-08T01:21:33;102426.25;;;9.97;60.73
78745;BME280;68064;53.100;8.824;2023-05-08T01:23:07;102428.59;;;9.94;60.88
78745;BME280;68064;53.100;8.824;2023-05-08T01:24:29;102433.72;;;9.94;61.71
78745;BME280;68064;53.100;8.824;2023-05-08T01:27:38;102421.19;;;9.85;62.31
78745;BME280;68064;53.100;8.824;2023-05-08T01:30:56;102417.38;;;9.92;62.16
78745;BME280;68064;53.100;8.824;2023-05-08T01:32:16;102428.47;;;9.92;62.83
78745;BME280;68064;53.100;8.824;2023-05-08T01:33:22;102413.72;;;9.88;63.96
78745;BME280;68064;53.100;8.824;2023-05-08T01:34:30;102412.59;;;9.85;62.71
78745;BME280;68064;53.100;8.824;2023-05-08T01:35:36;102414.06;;;9.81;64.99
78745;BME280;68064;53.100;8.824;2023-05-08T01:36:50;102419.59;;;9.87;61.45
78745;BME280;68064;53.100;8.824;2023-05-08T01:37:57;102412.06;;;9.89;65.71
78745;BME280;68064;53.100;8.824;2023-05-08T01:39:06;102416.59;;;9.93;61.37
78745;BME280;68064;53.100;8.824;2023-05-08T01:40:15;102420.94;;;9.94;60.54
78745;BME280;68064;53.100;8.824;2023-05-08T01:41:24;102418.94;;;9.90;62.17
78745;BME280;68064;53.100;8.824;2023-05-08T01:42:32;102423.63;;;9.95;60.52
78745;BME280;68064;53.100;8.824;2023-05-08T01:43:43;102420.25;;;9.96;60.20
78745;BME280;68064;53.100;8.824;2023-05-08T01:44:50;102414.69;;;9.90;59.78
78745;BME280;68064;53.100;8.824;2023-05-08T01:45:53;102418.72;;;9.87;61.03
78745;BME280;68064;53.100;8.824;2023-05-08T01:46:56;102411.38;;;9.91;59.83
78745;BME280;68064;53.100;8.824;2023-05-08T01:48:03;102413.81;;;9.90;62.23
78745;BME280;68064;53.100;8.824;2023-05-08T01:49:05;102419.59;;;9.87;60.54
78745;BME280;68064;53.100;8.824;2023-05-08T01:50:13;102411.50;;;9.81;62.23
78745;BME280;68064;53.100;8.824;2023-05-08T01:51:18;102417.28;;;9.79;64.95
78745;BME280;68064;53.100;8.824;2023-05-08T01:52:29;102419.06;;;9.80;60.70
78745;BME280;68064;53.100;8.824;2023-05-08T01:53:36;102418.63;;;9.85;60.38
78745;BME280;68064;53.100;8.824;2023-05-08T01:54:42;102421.59;;;9.80;60.59
78745;BME280;68064;53.100;8.824;2023-05-08T01:55:46;102423.59;;;9.84;59.88
78745;BME280;68064;53.100;8.824;2023-05-08T01:56:49;102424.50;;;9.84;59.15
78745;BME280;68064;53.100;8.824;2023-05-08T01:57:55;102416.72;;;9.71;66.30
78745;BME280;68064;53.100;8.824;2023-05-08T01:58:58;102416.94;;;9.74;62.65
78745;BME280;68064;53.100;8.824;2023-05-08T02:00:03;102416.94;;;9.74;60.48
78745;BME280;68064;53.100;8.824;2023-05-08T02:01:05;102418.97;;;9.78;61.69
78745;BME280;68064;53.100;8.824;2023-05-08T02:02:05;102422.19;;;9.76;61.41
78745;BME280;68064;53.100;8.824;2023-05-08T02:03:11;102422.84;;;9.73;60.85
78745;BME280;68064;53.100;8.824;2023-05-08T02:04:14;102425.38;;;9.73;59.99
78745;BME280;68064;53.100;8.824;2023-05-08T02:05:17;102421.75;;;9.70;59.45
78745;BME280;68064;53.100;8.824;2023-05-08T02:06:20;102418.41;;;9.71;59.48
78745;BME280;68064;53.100;8.824;2023-05-08T02:07:25;102421.09;;;9.72;59.81
78745;BME280;68064;53.100;8.824;2023-05-08T02:08:28;102424.75;;;9.76;59.59
78745;BME280;68064;53.100;8.824;2023-05-08T02:09:31;102426.19;;;9.72;59.37
78745;BME280;68064;53.100;8.824;2023-05-08T02:10:33;102423.50;;;9.71;59.23
78745;BME280;68064;53.100;8.824;2023-05-08T02:11:35;102420.53;;;9.65;63.43
78745;BME280;68064;53.100;8.824;2023-05-08T02:12:38;102425.19;;;9.58;62.15
78745;BME280;68064;53.100;8.824;2023-05-08T02:13:43;102425.41;;;9.62;61.70
78745;BME280;68064;53.100;8.824;2023-05-08T02:14:47;102417.19;;;9.66;60.52
78745;BME280;68064;53.100;8.824;2023-05-08T02:15:50;102422.28;;;9.54;63.34
78745;BME280;68064;53.100;8.824;2023-05-08T02:16:53;102429.63;;;9.61;62.74
78745;BME280;68064;53.100;8.824;2023-05-08T02:17:56;102427.19;;;9.63;60.88
78745;BME280;68064;53.100;8.824;2023-05-08T02:19:01;102429.19;;;9.55;61.82
78745;BME280;68064;53.100;8.824;2023-05-08T02:20:06;102430.63;;;9.51;60.43
78745;BME280;68064;53.100;8.824;2023-05-08T02:21:08;102422.75;;;9.48;62.00
78745;BME280;68064;53.100;8.824;2023-05-08T02:22:13;102417.66;;;9.60;60.40
78745;BME280;68064;53.100;8.824;2023-05-08T02:23:16;102425.09;;;9.57;60.45
78745;BME280;68064;53.100;8.824;2023-05-08T02:24:18;102421.66;;;9.56;62.12
78745;BME280;68064;53.100;8.824;2023-05-08T02:25:21;102420.97;;;9.59;60.17
78745;BME280;68064;53.100;8.824;2023-05-08T02:26:23;102421.97;;;9.49;63.09
78745;BME280;68064;53.100;8.824;2023-05-08T02:27:27;102421.44;;;9.53;64.85
78745;BME280;68064;53.100;8.824;2023-05-08T02:28:29;102426.66;;;9.43;64.09
78745;BME280;68064;53.100;8.824;2023-05-08T02:29:31;102431.19;;;9.36;62.78
78745;BME280;68064;53.100;8.824;2023-05-08T02:30:32;102419.66;;;9.41;62.91
78745;BME280;68064;53.100;8.824;2023-05-08T02:31:34;102429.44;;;9.46;61.84
78745;BME280;68064;53.100;8.824;2023-05-08T02:32:36;102428.88;;;9.50;60.33
78745;BME280;68064;53.100;8.824;2023-05-08T02:33:40;102432.75;;;9.45;61.72
78745;BME280;68064;53.100;8.824;2023-05-08T02:34:43;102429.22;;;9.43;62.87
78745;BME280;68064;53.100;8.824;2023-05-08T02:35:46;102432.22;;;9.38;62.78
78745;BME280;68064;53.100;8.824;2023-05-08T02:36:49;102429.00;;;9.40;61.13
78745;BME280;68064;53.100;8.824;2023-05-08T02:37:54;102422.75;;;9.37;60.50
78745;BME280;68064;53.100;8.824;2023-05-08T02:38:57;102430.06;;;9.32;60.94
78745;BME280;68064;53.100;8.824;2023-05-08T02:40:00;102432.41;;;9.29;62.93
78745;BME280;68064;53.100;8.824;2023-05-08T02:41:05;102434.28;;;9.32;61.36
78745;BME280;68064;53.100;8.824;2023-05-08T02:42:06;102439.66;;;9.35;62.88
78745;BME280;68064;53.100;8.824;2023-05-08T02:43:07;102438.41;;;9.30;63.45
78745;BME280;68064;53.100;8.824;2023-05-08T02:44:08;102440.53;;;9.24;62.29
78745;BME280;68064;53.100;8.824;2023-05-08T02:45:10;102437.44;;;9.28;60.95
78745;BME280;68064;53.100;8.824;2023-05-08T02:46:14;102434.28;;;9.32;60.60
78745;BME280;68064;53.100;8.824;2023-05-08T02:47:20;102432.63;;;9.32;60.98
78745;BME280;68064;53.100;8.824;2023-05-08T02:48:27;102437.28;;;9.26;64.97
78745;BME280;68064;53.100;8.824;2023-05-08T02:49:45;102433.31;;;9.18;64.23
78745;BME280;68064;53.100;8.824;2023-05-08T02:50:54;102429.84;;;9.18;61.02
78745;BME280;68064;53.100;8.824;2023-05-08T02:52:03;102427.97;;;9.15;63.45
78745;BME280;68064;53.100;8.824;2023-05-08T02:53:08;102429.41;;;9.12;61.97
78745;BME280;68064;53.100;8.824;2023-05-08T02:54:21;102434.38;;;9.10;61.39
78745;BME280;68064;53.100;8.824;2023-05-08T02:55:32;102429.28;;;9.10;63.21
78745;BME280;68064;53.100;8.824;2023-05-08T02:56:38;102433.25;;;9.07;61.67
78745;BME280;68064;53.100;8.824;2023-05-08T02:57:46;102425.59;;;9.07;61.74
78745;BME280;68064;53.100;8.824;2023-05-08T02:58:54;102427.59;;;8.99;62.58
78745;BME280;68064;53.100;8.824;2023-05-08T03:00:02;102431.81;;;8.98;62.68
78745;BME280;68064;53.100;8.824;2023-05-08T03:01:07;102431.59;;;8.95;63.98
78745;BME280;68064;53.100;8.824;2023-05-08T03:02:14;102427.03;;;9.03;62.93
78745;BME280;68064;53.100;8.824;2023-05-08T03:03:20;102424.25;;;9.00;62.38
78745;BME280;68064;53.100;8.824;2023-05-08T03:04:29;102426.25;;;8.92;66.62
78745;BME280;68064;53.100;8.824;2023-05-08T03:05:34;102427.03;;;8.91;62.17
78745;BME280;68064;53.100;8.824;2023-05-08T03:06:40;102425.81;;;8.86;65.52
78745;BME280;68064;53.100;8.824;2023-05-08T03:07:44;102424.69;;;8.94;62.51
78745;BME280;68064;53.100;8.824;2023-05-08T03:08:47;102428.81;;;8.92;63.44
78745;BME280;68064;53.100;8.824;2023-05-08T03:09:56;102422.69;;;8.90;62.87
78745;BME280;68064;53.100;8.824;2023-05-08T03:11:01;102419.03;;;8.87;66.17
78745;BME280;68064;53.100;8.824;2023-05-08T03:12:06;102420.56;;;8.85;61.24
78745;BME280;68064;53.100;8.824;2023-05-08T03:13:11;102421.59;;;8.87;65.72
78745;BME280;68064;53.100;8.824;2023-05-08T03:14:14;102421.47;;;8.85;62.05
78745;BME280;68064;53.100;8.824;2023-05-08T03:15:24;102416.34;;;8.85;64.91
78745;BME280;68064;53.100;8.824;2023-05-08T03:16:27;102424.69;;;8.83;63.71
78745;BME280;68064;53.100;8.824;2023-05-08T03:17:32;102420.34;;;8.93;62.45
78745;BME280;68064;53.100;8.824;2023-05-08T03:18:37;102418.69;;;8.82;63.10
78745;BME280;68064;53.100;8.824;2023-05-08T03:19:45;102411.13;;;8.84;62.54
78745;BME280;68064;53.100;8.824;2023-05-08T03:21:18;102404.91;;;8.80;62.54
78745;BME280;68064;53.100;8.824;2023-05-08T03:22:21;102402.22;;;8.79;61.21
78745;BME280;68064;53.100;8.824;2023-05-08T03:23:24;102403.44;;;8.84;61.45
78745;BME280;68064;53.100;8.824;2023-05-08T03:24:26;102399.25;;;8.84;63.99
78745;BME280;68064;53.100;8.824;2023-05-08T03:25:29;102403.22;;;8.81;61.29
78745;BME280;68064;53.100;8.824;2023-05-08T03:26:32;102406.91;;;8.84;60.96
78745;BME280;68064;53.100;8.824;2023-05-08T03:27:34;102400.56;;;8.79;61.56
78745;BME280;68064;53.100;8.824;2023-05-08T03:28:36;102402.91;;;8.76;65.14
78745;BME280;68064;53.100;8.824;2023-05-08T03:29:39;102399.75;;;8.69;64.32
78745;BME280;68064;53.100;8.824;2023-05-08T03:30:41;102401.19;;;8.65;62.12
78745;BME280;68064;53.100;8.824;2023-05-08T03:31:43;102400.72;;;8.59;63.53
78745;BME280;68064;53.100;8.824;2023-05-08T03:32:45;102393.06;;;8.59;64.89
78745;BME280;68064;53.100;8.824;2023-05-08T03:33:46;102392.84;;;8.56;62.08
78745;BME280;68064;53.100;8.824;2023-05-08T03:34:48;102398.97;;;8.58;60.90
78745;BME280;68064;53.100;8.824;2023-05-08T03:35:50;102398.19;;;8.59;62.75
78745;BME280;68064;53.100;8.824;2023-05-08T03:36:53;102394.97;;;8.62;63.67
78745;BME280;68064;53.100;8.824;2023-05-08T03:37:55;102396.19;;;8.55;63.67
78745;BME280;68064;53.100;8.824;2023-05-08T03:38:56;102401.53;;;8.58;61.77
78745;BME280;68064;53.100;8.824;2023-05-08T03:39:57;102402.53;;;8.60;63.55
78745;BME280;68064;53.100;8.824;2023-05-08T03:40:58;102406.28;;;8.54;63.28
78745;BME280;68064;53.100;8.824;2023-05-08T03:41:59;102396.41;;;8.58;61.46
78745;BME280;68064;53.100;8.824;2023-05-08T03:43:00;102399.75;;;8.57;62.34
78745;BME280;68064;53.100;8.824;2023-05-08T03:44:02;102401.75;;;8.61;62.72
78745;BME280;68064;53.100;8.824;2023-05-08T03:45:05;102402.16;;;8.56;62.72
78745;BME280;68064;53.100;8.824;2023-05-08T03:46:09;102405.03;;;8.48;63.44
78745;BME280;68064;53.100;8.824;2023-05-08T03:47:10;102398.00;;;8.46;63.14
78745;BME280;68064;53.100;8.824;2023-05-08T03:48:12;102400.09;;;8.40;65.15
78745;BME280;68064;53.100;8.824;2023-05-08T03:49:13;102402.66;;;8.40;62.74
78745;BME280;68064;53.100;8.824;2023-05-08T03:50:14;102402.78;;;8.41;63.46
78745;BME280;68064;53.100;8.824;2023-05-08T03:51:15;102399.56;;;8.44;62.66
78745;BME280;68064;53.100;8.824;2023-05-08T03:52:18;102405.59;;;8.56;61.44
78745;BME280;68064;53.100;8.824;2023-05-08T03:53:19;102395.28;;;8.55;62.08
78745;BME280;68064;53.100;8.824;2023-05-08T03:54:20;102398.38;;;8.50;63.17
78745;BME280;68064;53.100;8.824;2023-05-08T03:55:21;102395.38;;;8.44;65.20
78745;BME280;68064;53.100;8.824;2023-05-08T03:56:22;102391.56;;;8.39;65.86
78745;BME280;68064;53.100;8.824;2023-05-08T03:57:24;102396.44;;;8.36;63.63
78745;BME280;68064;53.100;8.824;2023-05-08T03:58:32;102394.78;;;8.37;62.91
78745;BME280;68064;53.100;8.824;2023-05-08T03:59:37;102397.78;;;8.43;63.20
78745;BME280;68064;53.100;8.824;2023-05-08T04:00:50;102388.16;;;8.39;62.55
78745;BME280;68064;53.100;8.824;2023-05-08T04:01:59;102393.00;;;8.36;63.48
78745;BME280;68064;53.100;8.824;2023-05-08T04:03:12;102388.53;;;8.33;63.49
78745;BME280;68064;53.100;8.824;2023-05-08T04:04:22;102392.66;;;8.31;66.72
78745;BME280;68064;53.100;8.824;2023-05-08T04:05:34;102384.75;;;8.28;64.00
78745;BME280;68064;53.100;8.824;2023-05-08T04:06:39;102383.09;;;8.29;63.04
78745;BME280;68064;53.100;8.824;2023-05-08T04:07:51;102383.44;;;8.33;64.33
78745;BME280;68064;53.100;8.824;2023-05-08T04:09:01;102386.56;;;8.29;65.02
78745;BME280;68064;53.100;8.824;2023-05-08T04:10:07;102381.44;;;8.29;62.81
78745;BME280;68064;53.100;8.824;2023-05-08T04:11:16;102378.56;;;8.36;61.99
78745;BME280;68064;53.100;8.824;2023-05-08T04:12:21;102379.38;;;8.35;62.29
78745;BME280;68064;53.100;8.824;2023-05-08T04:13:27;102387.91;;;8.36;64.10
78745;BME280;68064;53.100;8.824;2023-05-08T04:14:34;102387.00;;;8.35;64.41
78745;BME280;68064;53.100;8.824;2023-05-08T04:15:43;102389.69;;;8.27;69.41
78745;BME280;68064;53.100;8.824;2023-05-08T04:16:47;102382.94;;;8.27;65.40
78745;BME280;68064;53.100;8.824;2023-05-08T04:17:53;102384.59;;;8.27;64.60
78745;BME280;68064;53.100;8.824;2023-05-08T04:19:00;102392.50;;;8.30;65.48
78745;BME280;68064;53.100;8.824;2023-05-08T04:20:03;102390.34;;;8.24;67.30
78745;BME280;68064;53.100;8.824;2023-05-08T04:21:08;102397.78;;;8.21;63.89
78745;BME280;68064;53.100;8.824;2023-05-08T04:22:10;102399.19;;;8.18;65.13
78745;BME280;68064;53.100;8.824;2023-05-08T04:23:18;102401.66;;;8.16;64.45
78745;BME280;68064;53.100;8.824;2023-05-08T04:24:21;102400.47;;;8.23;64.74
78745;BME280;68064;53.100;8.824;2023-05-08T04:25:24;102402.22;;;8.24;65.41
78745;BME280;68064;53.100;8.824;2023-05-08T04:26:25;102406.41;;;8.33;62.35
78745;BME280;68064;53.100;8.824;2023-05-08T04:27:28;102404.50;;;8.31;61.59
78745;BME280;68064;53.100;8.824;2023-05-08T04:28:30;102406.97;;;8.29;62.29
78745;BME280;68064;53.100;8.824;2023-05-08T04:29:31;102409.38;;;8.28;62.56
78745;BME280;68064;53.100;8.824;2023-05-08T04:30:32;102407.44;;;8.25;63.45
78745;BME280;68064;53.100;8.824;2023-05-08T04:31:34;102410.66;;;8.23;64.58
78745;BME280;68064;53.100;8.824;2023-05-08T04:32:37;102410.50;;;8.31;61.81
78745;BME280;68064;53.100;8.824;2023-05-08T04:33:38;102409.25;;;8.26;64.45
78745;BME280;68064;53.100;8.824;2023-05-08T04:34:40;102411.78;;;8.26;64.55
78745;BME280;68064;53.100;8.824;2023-05-08T04:35:41;102413.09;;;8.21;63.09
78745;BME280;68064;53.100;8.824;2023-05-08T04:36:42;102410.66;;;8.23;61.85
78745;BME280;68064;53.100;8.824;2023-05-08T04:37:43;102408.75;;;8.20;64.15
78745;BME280;68064;53.100;8.824;2023-05-08T04:38:46;102409.25;;;8.26;62.40
78745;BME280;68064;53.100;8.824;2023-05-08T04:39:49;102410.91;;;8.26;64.82
78745;BME280;68064;53.100;8.824;2023-05-08T04:40:50;102414.06;;;8.23;67.82
78745;BME280;68064;53.100;8.824;2023-05-08T04:41:51;102412.97;;;8.20;63.45
78745;BME280;68064;53.100;8.824;2023-05-08T04:42:52;102419.31;;;8.25;63.39
78745;BME280;68064;53.100;8.824;2023-05-08T04:43:54;102412.41;;;8.24;63.14
78745;BME280;68064;53.100;8.824;2023-05-08T04:44:55;102414.72;;;8.21;63.39
78745;BME280;68064;53.100;8.824;2023-05-08T04:45:56;102417.16;;;8.29;64.55
78745;BME280;68064;53.100;8.824;2023-05-08T04:46:57;102416.09;;;8.27;63.43
78745;BME280;68064;53.100;8.824;2023-05-08T04:47:58;102412.56;;;8.25;64.61
78745;BME280;68064;53.100;8.824;2023-05-08T04:48:59;102421.72;;;8.23;62.79
78745;BME280;68064;53.100;8.824;2023-05-08T04:50:00;102425.31;;;8.25;63.38
78745;BME280;68064;53.100;8.824;2023-05-08T04:51:01;102423.41;;;8.23;63.85
78745;BME280;68064;53.100;8.824;2023-05-08T04:52:02;102412.94;;;8.30;64.59
78745;BME280;68064;53.100;8.824;2023-05-08T04:53:03;102423.50;;;8.34;62.42
78745;BME280;68064;53.100;8.824;2023-05-08T04:54:06;102420.81;;;8.33;62.40
78745;BME280;68064;53.100;8.824;2023-05-08T04:55:08;102415.97;;;8.36;62.73
78745;BME280;68064;53.100;8.824;2023-05-08T04:56:09;102420.72;;;8.31;63.31
78745;BME280;68064;53.100;8.824;2023-05-08T04:57:10;102415.72;;;8.33;62.58
78745;BME280;68064;53.100;8.824;2023-05-08T04:58:11;102410.75;;;8.34;64.54
78745;BME280;68064;53.100;8.824;2023-05-08T04:59:12;102417.25;;;8.31;66.47
78745;BME280;68064;53.100;8.824;2023-05-08T05:00:14;102420.72;;;8.31;63.55
78745;BME280;68064;53.100;8.824;2023-05-08T05:01:15;102414.19;;;8.35;62.95
78745;BME280;68064;53.100;8.824;2023-05-08T05:02:16;102415.84;;;8.34;64.82
78745;BME280;68064;53.100;8.824;2023-05-08T05:03:17;102419.16;;;8.33;62.53
78745;BME280;68064;53.100;8.824;2023-05-08T05:04:20;102409.75;;;8.32;63.05
78745;BME280;68064;53.100;8.824;2023-05-08T05:05:21;102417.41;;;8.32;68.09
78745;BME280;68064;53.100;8.824;2023-05-08T05:06:22;102424.91;;;8.31;66.74
78745;BME280;68064;53.100;8.824;2023-05-08T05:07:23;102419.16;;;8.33;66.38
78745;BME280;68064;53.100;8.824;2023-05-08T05:08:24;102419.47;;;8.48;61.94
78745;BME280;68064;53.100;8.824;2023-05-08T05:09:26;102421.78;;;8.45;62.32
78745;BME280;68064;53.100;8.824;2023-05-08T05:10:27;102428.31;;;8.41;63.67
78745;BME280;68064;53.100;8.824;2023-05-08T05:11:28;102421.94;;;8.36;65.47
78745;BME280;68064;53.100;8.824;2023-05-08T05:12:29;102422.41;;;8.42;65.40
78745;BME280;68064;53.100;8.824;2023-05-08T05:13:30;102415.31;;;8.38;68.61
78745;BME280;68064;53.100;8.824;2023-05-08T05:14:31;102421.31;;;8.39;66.36
78745;BME280;68064;53.100;8.824;2023-05-08T05:15:32;102422.19;;;8.39;63.92
78745;BME280;68064;53.100;8.824;2023-05-08T05:16:34;102417.97;;;8.40;66.01
78745;BME280;68064;53.100;8.824;2023-05-08T05:17:35;102416.97;;;8.38;63.16
78745;BME280;68064;53.100;8.824;2023-05-08T05:18:36;102428.41;;;8.43;63.87
78745;BME280;68064;53.100;8.824;2023-05-08T05:19:37;102421.88;;;8.46;63.51
78745;BME280;68064;53.100;8.824;2023-05-08T05:20:38;102421.53;;;8.42;66.86
78745;BME280;68064;53.100;8.824;2023-05-08T05:21:39;102421.22;;;8.49;66.99
78745;BME280;68064;53.100;8.824;2023-05-08T05:22:40;102430.66;;;8.50;62.85
78745;BME280;68064;53.100;8.824;2023-05-08T05:23:41;102429.09;;;8.52;65.24
78745;BME280;68064;53.100;8.824;2023-05-08T05:24:43;102426.44;;;8.50;67.54
78745;BME280;68064;53.100;8.824;2023-05-08T05:25:44;102427.81;;;8.57;65.20
78745;BME280;68064;53.100;8.824;2023-05-08T05:26:45;102432.44;;;8.51;64.66
78745;BME280;68064;53.100;8.824;2023-05-08T05:27:46;102424.25;;;8.55;64.66
78745;BME280;68064;53.100;8.824;2023-05-08T05:28:47;102433.69;;;8.56;65.17
78745;BME280;68064;53.100;8.824;2023-05-08T05:29:49;102429.25;;;8.54;66.12
78745;BME280;68064;53.100;8.824;2023-05-08T05:30:50;102431.94;;;8.55;64.87
78745;BME280;68064;53.100;8.824;2023-05-08T05:31:51;102432.03;;;8.57;65.15
78745;BME280;68064;53.100;8.824;2023-05-08T05:32:53;102429.38;;;8.55;65.14
78745;BME280;68064;53.100;8.824;2023-05-08T05:33:55;102437.03;;;8.55;64.72
78745;BME280;68064;53.100;8.824;2023-05-08T05:34:56;102432.25;;;8.60;64.15
78745;BME280;68064;53.100;8.824;2023-05-08T05:35:57;102438.03;;;8.57;65.34
78745;BME280;68064;53.100;8.824;2023-05-08T05:36:58;102435.47;;;8.57;65.13
78745;BME280;68064;53.100;8.824;2023-05-08T05:37:59;102438.13;;;8.59;66.68
78745;BME280;68064;53.100;8.824;2023-05-08T05:39:00;102438.25;;;8.60;65.79
78745;BME280;68064;53.100;8.824;2023-05-08T05:40:03;102436.81;;;8.64;64.01
78745;BME280;68064;53.100;8.824;2023-05-08T05:41:04;102440.06;;;8.73;63.36